sensor_id;sensor_type;location;lat;lon;timestamp;temperature;humidity
32706;DHT22;19094;50.972;3.538;2022-09-09T00:00:24;22.00;61.00
32706;DHT22;19094;50.972;3.538;2022-09-09T00:03:18;22.10;61.10
32706;DHT22;19094;50.972;3.538;2022-09-09T00:08:21;22.00;61.00
32706;DHT22;19094;50.972;3.538;2022-09-09T00:10:56;22.00;60.80
32706;DHT22;19094;50.972;3.538;2022-09-09T00:13:47;22.00;61.10
32706;DHT22;19094;50.972;3.538;2022-09-09T00:16:24;22.00;60.30
32706;DHT22;19094;50.972;3.538;2022-09-09T00:19:07;22.00;61.10
32706;DHT22;19094;50.972;3.538;2022-09-09T00:21:39;21.90;60.70
32706;DHT22;19094;50.972;3.538;2022-09-09T00:24:29;21.90;61.30
32706;DHT22;19094;50.972;3.538;2022-09-09T00:30:00;22.00;60.60
32706;DHT22;19094;50.972;3.538;2022-09-09T00:32:30;21.90;61.00
32706;DHT22;19094;50.972;3.538;2022-09-09T00:35:10;21.90;61.00
32706;DHT22;19094;50.972;3.538;2022-09-09T00:37:37;21.90;61.30
32706;DHT22;19094;50.972;3.538;2022-09-09T00:42:52;21.80;61.10
32706;DHT22;19094;50.972;3.538;2022-09-09T00:47:52;21.90;61.10
32706;DHT22;19094;50.972;3.538;2022-09-09T00:56:00;21.90;60.70
32706;DHT22;19094;50.972;3.538;2022-09-09T00:58:32;21.80;60.80
32706;DHT22;19094;50.972;3.538;2022-09-09T01:01:04;21.80;61.10
32706;DHT22;19094;50.972;3.538;2022-09-09T01:03:36;21.80;61.10
32706;DHT22;19094;50.972;3.538;2022-09-09T01:09:30;21.80;60.60
32706;DHT22;19094;50.972;3.538;2022-09-09T01:14:48;21.70;60.40
32706;DHT22;19094;50.972;3.538;2022-09-09T01:22:34;21.80;60.40
32706;DHT22;19094;50.972;3.538;2022-09-09T01:27:48;21.70;61.20
32706;DHT22;19094;50.972;3.538;2022-09-09T01:30:17;21.60;61.30
32706;DHT22;19094;50.972;3.538;2022-09-09T01:32:46;21.60;61.40
32706;DHT22;19094;50.972;3.538;2022-09-09T01:38:12;21.60;60.90
32706;DHT22;19094;50.972;3.538;2022-09-09T01:40:38;21.60;61.40
32706;DHT22;19094;50.972;3.538;2022-09-09T01:43:04;21.60;61.30
32706;DHT22;19094;50.972;3.538;2022-09-09T01:45:32;21.60;61.20
32706;DHT22;19094;50.972;3.538;2022-09-09T01:47:58;21.60;61.20
32706;DHT22;19094;50.972;3.538;2022-09-09T01:50:24;21.50;61.40
32706;DHT22;19094;50.972;3.538;2022-09-09T01:52:53;21.50;61.50
32706;DHT22;19094;50.972;3.538;2022-09-09T01:55:30;21.50;61.50
32706;DHT22;19094;50.972;3.538;2022-09-09T01:58:38;21.70;61.10
32706;DHT22;19094;50.972;3.538;2022-09-09T02:01:42;21.60;60.70
32706;DHT22;19094;50.972;3.538;2022-09-09T02:04:45;21.60;60.70
32706;DHT22;19094;50.972;3.538;2022-09-09T02:07:28;21.60;60.40
32706;DHT22;19094;50.972;3.538;2022-09-09T02:10:02;21.60;61.00
32706;DHT22;19094;50.972;3.538;2022-09-09T02:12:31;21.50;61.60
32706;DHT22;19094;50.972;3.538;2022-09-09T02:15:03;21.50;61.70
32706;DHT22;19094;50.972;3.538;2022-09-09T02:17:34;21.50;61.40
32706;DHT22;19094;50.972;3.538;2022-09-09T02:20:12;21.50;61.40
32706;DHT22;19094;50.972;3.538;2022-09-09T02:22:42;21.50;61.50
32706;DHT22;19094;50.972;3.538;2022-09-09T02:25:12;21.50;61.60
32706;DHT22;19094;50.972;3.538;2022-09-09T02:27:40;21.50;61.50
32706;DHT22;19094;50.972;3.538;2022-09-09T02:30:09;21.60;61.30
32706;DHT22;19094;50.972;3.538;2022-09-09T02:32:36;21.60;61.30
32706;DHT22;19094;50.972;3.538;2022-09-09T02:35:10;21.60;61.30
32706;DHT22;19094;50.972;3.538;2022-09-09T02:37:39;21.50;61.30
32706;DHT22;19094;50.972;3.538;2022-09-09T02:40:09;21.50;61.50
32706;DHT22;19094;50.972;3.538;2022-09-09T02:42:43;21.50;61.60
32706;DHT22;19094;50.972;3.538;2022-09-09T02:45:12;21.50;61.50
32706;DHT22;19094;50.972;3.538;2022-09-09T02:50:17;21.60;61.30
32706;DHT22;19094;50.972;3.538;2022-09-09T02:53:02;21.50;61.20
32706;DHT22;19094;50.972;3.538;2022-09-09T02:55:41;21.50;61.20
32706;DHT22;19094;50.972;3.538;2022-09-09T02:58:12;21.40;61.30
32706;DHT22;19094;50.972;3.538;2022-09-09T03:00:42;21.40;61.80
32706;DHT22;19094;50.972;3.538;2022-09-09T03:03:09;21.40;61.90
32706;DHT22;19094;50.972;3.538;2022-09-09T03:05:35;21.40;61.70
32706;DHT22;19094;50.972;3.538;2022-09-09T03:08:02;21.40;61.90
32706;DHT22;19094;50.972;3.538;2022-09-09T03:10:27;21.30;62.00
32706;DHT22;19094;50.972;3.538;2022-09-09T03:12:53;21.30;62.00
32706;DHT22;19094;50.972;3.538;2022-09-09T03:15:19;21.30;62.00
32706;DHT22;19094;50.972;3.538;2022-09-09T03:17:44;21.30;62.00
32706;DHT22;19094;50.972;3.538;2022-09-09T03:20:10;21.40;61.90
32706;DHT22;19094;50.972;3.538;2022-09-09T03:22:36;21.30;62.00
32706;DHT22;19094;50.972;3.538;2022-09-09T03:25:03;21.30;62.10
32706;DHT22;19094;50.972;3.538;2022-09-09T03:27:29;21.30;62.10
32706;DHT22;19094;50.972;3.538;2022-09-09T03:29:54;21.30;62.00
32706;DHT22;19094;50.972;3.538;2022-09-09T03:32:22;21.30;62.10
32706;DHT22;19094;50.972;3.538;2022-09-09T03:34:48;21.30;62.00
32706;DHT22;19094;50.972;3.538;2022-09-09T03:37:15;21.30;61.90
32706;DHT22;19094;50.972;3.538;2022-09-09T03:39:41;21.30;62.10
32706;DHT22;19094;50.972;3.538;2022-09-09T03:42:07;21.30;62.20
32706;DHT22;19094;50.972;3.538;2022-09-09T03:44:32;21.30;62.30
32706;DHT22;19094;50.972;3.538;2022-09-09T03:46:58;21.30;62.00
32706;DHT22;19094;50.972;3.538;2022-09-09T03:49:26;21.30;62.10
32706;DHT22;19094;50.972;3.538;2022-09-09T03:51:55;21.30;62.20
32706;DHT22;19094;50.972;3.538;2022-09-09T03:54:22;21.30;61.90
32706;DHT22;19094;50.972;3.538;2022-09-09T03:56:48;21.30;61.70
32706;DHT22;19094;50.972;3.538;2022-09-09T03:59:13;21.40;61.70
32706;DHT22;19094;50.972;3.538;2022-09-09T04:01:39;21.30;61.70
32706;DHT22;19094;50.972;3.538;2022-09-09T04:04:05;21.20;61.90
32706;DHT22;19094;50.972;3.538;2022-09-09T04:06:31;21.20;62.10
32706;DHT22;19094;50.972;3.538;2022-09-09T04:08:56;21.20;62.10
32706;DHT22;19094;50.972;3.538;2022-09-09T04:11:22;21.30;62.10
32706;DHT22;19094;50.972;3.538;2022-09-09T04:13:49;21.30;61.90
32706;DHT22;19094;50.972;3.538;2022-09-09T04:16:14;21.20;62.10
32706;DHT22;19094;50.972;3.538;2022-09-09T04:18:40;21.30;62.10
32706;DHT22;19094;50.972;3.538;2022-09-09T04:21:06;21.30;61.70
32706;DHT22;19094;50.972;3.538;2022-09-09T04:23:33;21.30;61.90
32706;DHT22;19094;50.972;3.538;2022-09-09T04:26:00;21.30;61.70
32706;DHT22;19094;50.972;3.538;2022-09-09T04:28:31;21.30;61.80
32706;DHT22;19094;50.972;3.538;2022-09-09T04:31:04;21.30;61.80
32706;DHT22;19094;50.972;3.538;2022-09-09T04:33:30;21.30;61.70
32706;DHT22;19094;50.972;3.538;2022-09-09T04:35:57;21.30;61.80
32706;DHT22;19094;50.972;3.538;2022-09-09T04:38:22;21.30;61.80
32706;DHT22;19094;50.972;3.538;2022-09-09T04:40:49;21.30;61.90
32706;DHT22;19094;50.972;3.538;2022-09-09T04:43:17;21.30;62.10
32706;DHT22;19094;50.972;3.538;2022-09-09T04:45:47;21.30;61.90
32706;DHT22;19094;50.972;3.538;2022-09-09T04:48:13;21.30;61.90
32706;DHT22;19094;50.972;3.538;2022-09-09T04:50:40;21.30;61.80
32706;DHT22;19094;50.972;3.538;2022-09-09T04:53:06;21.30;62.00
32706;DHT22;19094;50.972;3.538;2022-09-09T04:55:33;21.20;61.90
32706;DHT22;19094;50.972;3.538;2022-09-09T04:58:07;21.30;62.00
32706;DHT22;19094;50.972;3.538;2022-09-09T05:00:33;21.30;61.70
32706;DHT22;19094;50.972;3.538;2022-09-09T05:03:04;21.20;61.90
32706;DHT22;19094;50.972;3.538;2022-09-09T05:05:31;21.30;61.80
32706;DHT22;19094;50.972;3.538;2022-09-09T05:08:04;21.30;61.80
32706;DHT22;19094;50.972;3.538;2022-09-09T05:10:30;21.20;62.00
32706;DHT22;19094;50.972;3.538;2022-09-09T05:12:56;21.10;62.20
32706;DHT22;19094;50.972;3.538;2022-09-09T05:15:22;21.10;62.50
32706;DHT22;19094;50.972;3.538;2022-09-09T05:17:48;21.00;63.60
32706;DHT22;19094;50.972;3.538;2022-09-09T05:20:14;21.00;62.90
32706;DHT22;19094;50.972;3.538;2022-09-09T05:22:40;21.00;63.00
32706;DHT22;19094;50.972;3.538;2022-09-09T05:25:06;21.00;63.00
32706;DHT22;19094;50.972;3.538;2022-09-09T05:27:34;21.00;63.10
32706;DHT22;19094;50.972;3.538;2022-09-09T05:30:00;21.00;63.10
32706;DHT22;19094;50.972;3.538;2022-09-09T05:32:25;21.00;63.10
32706;DHT22;19094;50.972;3.538;2022-09-09T05:34:51;21.00;63.20
32706;DHT22;19094;50.972;3.538;2022-09-09T05:37:18;20.90;63.20
32706;DHT22;19094;50.972;3.538;2022-09-09T05:39:43;20.90;63.30
32706;DHT22;19094;50.972;3.538;2022-09-09T05:42:09;20.90;63.40
32706;DHT22;19094;50.972;3.538;2022-09-09T05:44:35;20.90;63.50
32706;DHT22;19094;50.972;3.538;2022-09-09T05:47:01;21.00;63.50
32706;DHT22;19094;50.972;3.538;2022-09-09T05:49:26;20.90;63.70
32706;DHT22;19094;50.972;3.538;2022-09-09T05:51:52;20.90;63.70
32706;DHT22;19094;50.972;3.538;2022-09-09T05:54:18;20.90;63.80
32706;DHT22;19094;50.972;3.538;2022-09-09T05:56:44;20.90;63.80
32706;DHT22;19094;50.972;3.538;2022-09-09T05:59:10;20.90;63.90
32706;DHT22;19094;50.972;3.538;2022-09-09T06:01:37;20.90;63.80
32706;DHT22;19094;50.972;3.538;2022-09-09T06:04:06;20.90;64.00
32706;DHT22;19094;50.972;3.538;2022-09-09T06:06:37;20.90;63.90
32706;DHT22;19094;50.972;3.538;2022-09-09T06:09:06;21.00;63.80
32706;DHT22;19094;50.972;3.538;2022-09-09T06:11:36;20.90;64.50
32706;DHT22;19094;50.972;3.538;2022-09-09T06:14:02;20.90;64.00
32706;DHT22;19094;50.972;3.538;2022-09-09T06:16:29;20.80;64.20
32706;DHT22;19094;50.972;3.538;2022-09-09T06:18:55;20.80;64.40
32706;DHT22;19094;50.972;3.538;2022-09-09T06:21:35;20.80;64.30
32706;DHT22;19094;50.972;3.538;2022-09-09T06:24:03;20.90;64.40
32706;DHT22;19094;50.972;3.538;2022-09-09T06:26:34;20.90;64.30
32706;DHT22;19094;50.972;3.538;2022-09-09T06:29:00;20.90;64.30
32706;DHT22;19094;50.972;3.538;2022-09-09T06:31:29;20.90;64.40
32706;DHT22;19094;50.972;3.538;2022-09-09T06:33:57;20.90;64.30
32706;DHT22;19094;50.972;3.538;2022-09-09T06:36:28;20.90;64.00
32706;DHT22;19094;50.972;3.538;2022-09-09T06:38:54;21.00;64.00
32706;DHT22;19094;50.972;3.538;2022-09-09T06:41:22;20.90;64.30
32706;DHT22;19094;50.972;3.538;2022-09-09T06:43:48;20.90;64.40
32706;DHT22;19094;50.972;3.538;2022-09-09T06:46:15;20.90;64.00
32706;DHT22;19094;50.972;3.538;2022-09-09T06:48:42;20.90;64.10
32706;DHT22;19094;50.972;3.538;2022-09-09T06:53:38;21.10;63.50
32706;DHT22;19094;50.972;3.538;2022-09-09T06:58:45;21.10;64.00
32706;DHT22;19094;50.972;3.538;2022-09-09T07:01:13;21.10;63.60
32706;DHT22;19094;50.972;3.538;2022-09-09T07:03:40;21.10;63.30
32706;DHT22;19094;50.972;3.538;2022-09-09T07:06:07;21.00;63.90
32706;DHT22;19094;50.972;3.538;2022-09-09T07:08:39;21.00;63.90
32706;DHT22;19094;50.972;3.538;2022-09-09T07:11:07;21.10;63.70
32706;DHT22;19094;50.972;3.538;2022-09-09T07:13:34;21.10;63.70
32706;DHT22;19094;50.972;3.538;2022-09-09T07:16:10;21.10;63.90
32706;DHT22;19094;50.972;3.538;2022-09-09T07:18:36;21.20;63.50
32706;DHT22;19094;50.972;3.538;2022-09-09T07:21:03;21.20;63.60
32706;DHT22;19094;50.972;3.538;2022-09-09T07:23:30;21.20;63.60
32706;DHT22;19094;50.972;3.538;2022-09-09T07:25:56;21.10;63.70
32706;DHT22;19094;50.972;3.538;2022-09-09T07:28:23;21.10;64.00
32706;DHT22;19094;50.972;3.538;2022-09-09T07:30:57;21.00;64.20
32706;DHT22;19094;50.972;3.538;2022-09-09T07:33:24;21.10;64.20
32706;DHT22;19094;50.972;3.538;2022-09-09T07:35:50;21.10;64.00
32706;DHT22;19094;50.972;3.538;2022-09-09T07:38:17;21.10;64.00
32706;DHT22;19094;50.972;3.538;2022-09-09T07:40:43;21.00;64.00
32706;DHT22;19094;50.972;3.538;2022-09-09T07:43:09;21.00;64.10
32706;DHT22;19094;50.972;3.538;2022-09-09T07:45:35;21.10;64.00
32706;DHT22;19094;50.972;3.538;2022-09-09T07:48:01;21.10;64.00
32706;DHT22;19094;50.972;3.538;2022-09-09T07:50:27;21.10;64.10
32706;DHT22;19094;50.972;3.538;2022-09-09T07:52:53;21.00;64.40
32706;DHT22;19094;50.972;3.538;2022-09-09T07:55:23;21.10;64.30
32706;DHT22;19094;50.972;3.538;2022-09-09T07:57:53;21.00;64.10
32706;DHT22;19094;50.972;3.538;2022-09-09T08:00:19;21.00;64.50
32706;DHT22;19094;50.972;3.538;2022-09-09T08:02:47;21.00;64.20
32706;DHT22;19094;50.972;3.538;2022-09-09T08:05:14;21.00;64.50
32706;DHT22;19094;50.972;3.538;2022-09-09T08:07:40;21.00;64.50
32706;DHT22;19094;50.972;3.538;2022-09-09T08:10:06;20.90;64.70
32706;DHT22;19094;50.972;3.538;2022-09-09T08:12:32;20.90;64.80
32706;DHT22;19094;50.972;3.538;2022-09-09T08:14:57;20.90;64.80
32706;DHT22;19094;50.972;3.538;2022-09-09T08:17:23;20.90;64.90
32706;DHT22;19094;50.972;3.538;2022-09-09T08:19:49;20.80;64.90
32706;DHT22;19094;50.972;3.538;2022-09-09T08:22:15;20.80;65.10
32706;DHT22;19094;50.972;3.538;2022-09-09T08:24:40;20.90;64.80
32706;DHT22;19094;50.972;3.538;2022-09-09T08:27:06;20.90;65.00
32706;DHT22;19094;50.972;3.538;2022-09-09T08:29:32;20.90;64.80
32706;DHT22;19094;50.972;3.538;2022-09-09T08:31:58;20.90;64.90
32706;DHT22;19094;50.972;3.538;2022-09-09T08:34:25;20.90;64.80
32706;DHT22;19094;50.972;3.538;2022-09-09T08:36:52;20.90;64.80
32706;DHT22;19094;50.972;3.538;2022-09-09T08:39:20;20.90;65.00
32706;DHT22;19094;50.972;3.538;2022-09-09T08:47:54;20.90;65.40
32706;DHT22;19094;50.972;3.538;2022-09-09T08:57:49;20.80;65.20
32706;DHT22;19094;50.972;3.538;2022-09-09T09:00:15;20.80;65.20
32706;DHT22;19094;50.972;3.538;2022-09-09T09:03:09;20.80;65.40
32706;DHT22;19094;50.972;3.538;2022-09-09T09:10:56;20.80;65.20
32706;DHT22;19094;50.972;3.538;2022-09-09T09:16:29;20.80;65.40
32706;DHT22;19094;50.972;3.538;2022-09-09T09:18:58;20.80;65.50
32706;DHT22;19094;50.972;3.538;2022-09-09T09:24:19;20.90;65.80
32706;DHT22;19094;50.972;3.538;2022-09-09T09:26:45;20.90;65.10
32706;DHT22;19094;50.972;3.538;2022-09-09T09:29:14;20.90;65.30
32706;DHT22;19094;50.972;3.538;2022-09-09T09:31:47;20.90;65.20
32706;DHT22;19094;50.972;3.538;2022-09-09T09:34:14;21.00;64.80
32706;DHT22;19094;50.972;3.538;2022-09-09T09:36:45;20.90;64.70
32706;DHT22;19094;50.972;3.538;2022-09-09T09:39:23;21.00;65.00
32706;DHT22;19094;50.972;3.538;2022-09-09T09:41:49;21.00;65.00
32706;DHT22;19094;50.972;3.538;2022-09-09T09:44:27;21.00;64.60
32706;DHT22;19094;50.972;3.538;2022-09-09T09:47:15;21.10;65.00
32706;DHT22;19094;50.972;3.538;2022-09-09T09:49:58;21.10;64.50
32706;DHT22;19094;50.972;3.538;2022-09-09T09:52:29;21.10;65.00
32706;DHT22;19094;50.972;3.538;2022-09-09T09:54:57;21.00;64.80
32706;DHT22;19094;50.972;3.538;2022-09-09T09:57:27;21.00;64.70
32706;DHT22;19094;50.972;3.538;2022-09-09T10:00:14;21.00;64.90
32706;DHT22;19094;50.972;3.538;2022-09-09T10:02:43;21.00;64.60
32706;DHT22;19094;50.972;3.538;2022-09-09T10:05:29;21.10;64.80
32706;DHT22;19094;50.972;3.538;2022-09-09T10:08:10;21.20;64.70
32706;DHT22;19094;50.972;3.538;2022-09-09T10:10:57;21.20;64.10
32706;DHT22;19094;50.972;3.538;2022-09-09T10:13:39;21.20;64.80
32706;DHT22;19094;50.972;3.538;2022-09-09T10:19:29;21.20;64.30
32706;DHT22;19094;50.972;3.538;2022-09-09T10:27:24;21.20;64.20
32706;DHT22;19094;50.972;3.538;2022-09-09T10:30:16;21.20;63.90
32706;DHT22;19094;50.972;3.538;2022-09-09T10:46:34;21.50;63.50
32706;DHT22;19094;50.972;3.538;2022-09-09T10:49:10;21.60;62.90
32706;DHT22;19094;50.972;3.538;2022-09-09T10:57:40;21.40;63.60
32706;DHT22;19094;50.972;3.538;2022-09-09T11:00:24;21.50;63.70
32706;DHT22;19094;50.972;3.538;2022-09-09T11:02:58;21.60;63.10
32706;DHT22;19094;50.972;3.538;2022-09-09T11:08:17;21.70;62.70
32706;DHT22;19094;50.972;3.538;2022-09-09T11:11:04;21.60;62.60
32706;DHT22;19094;50.972;3.538;2022-09-09T11:16:22;21.70;62.50
32706;DHT22;19094;50.972;3.538;2022-09-09T11:18:49;21.80;62.80
32706;DHT22;19094;50.972;3.538;2022-09-09T11:21:29;21.90;63.00
32706;DHT22;19094;50.972;3.538;2022-09-09T11:24:10;21.90;62.50
32706;DHT22;19094;50.972;3.538;2022-09-09T11:26:45;22.00;62.50
32706;DHT22;19094;50.972;3.538;2022-09-09T11:32:12;22.30;61.50
32706;DHT22;19094;50.972;3.538;2022-09-09T11:35:30;22.40;60.90
32706;DHT22;19094;50.972;3.538;2022-09-09T11:38:19;22.40;60.70
32706;DHT22;19094;50.972;3.538;2022-09-09T11:40:46;22.50;60.20
32706;DHT22;19094;50.972;3.538;2022-09-09T11:45:54;22.20;61.30
32706;DHT22;19094;50.972;3.538;2022-09-09T11:48:43;22.10;61.80
32706;DHT22;19094;50.972;3.538;2022-09-09T11:51:24;22.20;61.80
32706;DHT22;19094;50.972;3.538;2022-09-09T11:54:28;22.30;62.00
32706;DHT22;19094;50.972;3.538;2022-09-09T11:56:47;22.40;61.60
32706;DHT22;19094;50.972;3.538;2022-09-09T11:59:24;22.40;61.20
32706;DHT22;19094;50.972;3.538;2022-09-09T12:02:12;22.50;61.70
32706;DHT22;19094;50.972;3.538;2022-09-09T12:04:46;22.60;60.80
32706;DHT22;19094;50.972;3.538;2022-09-09T12:10:23;22.70;61.20
32706;DHT22;19094;50.972;3.538;2022-09-09T12:12:52;22.70;60.70
32706;DHT22;19094;50.972;3.538;2022-09-09T12:15:26;22.70;60.50
32706;DHT22;19094;50.972;3.538;2022-09-09T12:17:56;22.80;60.40
32706;DHT22;19094;50.972;3.538;2022-09-09T12:25:55;23.10;59.60
32706;DHT22;19094;50.972;3.538;2022-09-09T12:31:29;23.10;59.50
32706;DHT22;19094;50.972;3.538;2022-09-09T12:36:57;23.10;60.70
32706;DHT22;19094;50.972;3.538;2022-09-09T12:39:54;23.00;61.00
32706;DHT22;19094;50.972;3.538;2022-09-09T12:42:22;23.00;62.30
32706;DHT22;19094;50.972;3.538;2022-09-09T12:49:58;22.80;60.80
32706;DHT22;19094;50.972;3.538;2022-09-09T12:52:29;22.70;60.70
32706;DHT22;19094;50.972;3.538;2022-09-09T12:54:59;22.90;61.50
32706;DHT22;19094;50.972;3.538;2022-09-09T12:57:33;22.90;60.90
32706;DHT22;19094;50.972;3.538;2022-09-09T13:00:04;22.90;60.00
32706;DHT22;19094;50.972;3.538;2022-09-09T13:02:31;22.90;60.50
32706;DHT22;19094;50.972;3.538;2022-09-09T13:05:06;22.90;60.60
32706;DHT22;19094;50.972;3.538;2022-09-09T13:07:38;22.90;61.00
32706;DHT22;19094;50.972;3.538;2022-09-09T13:10:04;22.90;60.50
32706;DHT22;19094;50.972;3.538;2022-09-09T13:12:30;22.90;60.20
32706;DHT22;19094;50.972;3.538;2022-09-09T13:14:56;22.90;60.10
32706;DHT22;19094;50.972;3.538;2022-09-09T13:17:24;22.90;60.60
32706;DHT22;19094;50.972;3.538;2022-09-09T13:19:52;22.80;60.60
32706;DHT22;19094;50.972;3.538;2022-09-09T13:27:41;22.90;60.10
32706;DHT22;19094;50.972;3.538;2022-09-09T13:33:18;23.00;59.10
32706;DHT22;19094;50.972;3.538;2022-09-09T13:35:56;23.10;58.80
32706;DHT22;19094;50.972;3.538;2022-09-09T13:38:22;23.00;59.10
32706;DHT22;19094;50.972;3.538;2022-09-09T13:41:07;23.00;59.40
32706;DHT22;19094;50.972;3.538;2022-09-09T13:43:53;22.90;60.30
32706;DHT22;19094;50.972;3.538;2022-09-09T13:46:39;22.80;60.60
32706;DHT22;19094;50.972;3.538;2022-09-09T13:54:04;22.70;61.20
32706;DHT22;19094;50.972;3.538;2022-09-09T13:56:34;22.70;61.20
32706;DHT22;19094;50.972;3.538;2022-09-09T13:59:00;22.60;60.70
32706;DHT22;19094;50.972;3.538;2022-09-09T14:01:27;22.60;60.20
32706;DHT22;19094;50.972;3.538;2022-09-09T14:03:53;22.60;60.00
32706;DHT22;19094;50.972;3.538;2022-09-09T14:06:19;22.60;60.30
32706;DHT22;19094;50.972;3.538;2022-09-09T14:08:47;22.60;60.70
32706;DHT22;19094;50.972;3.538;2022-09-09T14:11:14;22.60;61.10
32706;DHT22;19094;50.972;3.538;2022-09-09T14:13:40;22.50;60.40
32706;DHT22;19094;50.972;3.538;2022-09-09T14:16:06;22.50;60.30
32706;DHT22;19094;50.972;3.538;2022-09-09T14:18:31;22.60;61.30
32706;DHT22;19094;50.972;3.538;2022-09-09T14:20:57;22.60;60.50
32706;DHT22;19094;50.972;3.538;2022-09-09T14:23:23;22.50;61.00
32706;DHT22;19094;50.972;3.538;2022-09-09T14:25:50;22.50;61.20
32706;DHT22;19094;50.972;3.538;2022-09-09T14:28:17;22.60;60.80
32706;DHT22;19094;50.972;3.538;2022-09-09T14:30:43;22.60;61.10
32706;DHT22;19094;50.972;3.538;2022-09-09T14:33:14;22.70;62.20
32706;DHT22;19094;50.972;3.538;2022-09-09T14:35:40;22.70;61.90
32706;DHT22;19094;50.972;3.538;2022-09-09T14:38:07;22.70;61.20
32706;DHT22;19094;50.972;3.538;2022-09-09T14:40:35;22.80;61.30
32706;DHT22;19094;50.972;3.538;2022-09-09T14:43:01;22.90;62.20
32706;DHT22;19094;50.972;3.538;2022-09-09T14:45:27;22.90;62.50
32706;DHT22;19094;50.972;3.538;2022-09-09T14:47:54;22.90;61.10
32706;DHT22;19094;50.972;3.538;2022-09-09T14:50:20;23.00;61.80
32706;DHT22;19094;50.972;3.538;2022-09-09T14:52:47;23.00;60.90
32706;DHT22;19094;50.972;3.538;2022-09-09T14:55:14;23.00;60.30
32706;DHT22;19094;50.972;3.538;2022-09-09T14:57:41;23.10;60.50
32706;DHT22;19094;50.972;3.538;2022-09-09T15:00:08;23.10;62.20
32706;DHT22;19094;50.972;3.538;2022-09-09T15:02:35;23.20;59.80
32706;DHT22;19094;50.972;3.538;2022-09-09T15:05:00;23.40;59.50
32706;DHT22;19094;50.972;3.538;2022-09-09T15:07:27;23.30;59.80
32706;DHT22;19094;50.972;3.538;2022-09-09T15:09:54;23.40;58.60
32706;DHT22;19094;50.972;3.538;2022-09-09T15:12:20;23.50;58.90
32706;DHT22;19094;50.972;3.538;2022-09-09T15:14:46;23.50;58.40
32706;DHT22;19094;50.972;3.538;2022-09-09T15:17:12;23.50;58.80
32706;DHT22;19094;50.972;3.538;2022-09-09T15:19:38;23.50;58.00
32706;DHT22;19094;50.972;3.538;2022-09-09T15:22:07;23.50;58.00
32706;DHT22;19094;50.972;3.538;2022-09-09T15:24:33;23.40;57.90
32706;DHT22;19094;50.972;3.538;2022-09-09T15:26:59;23.40;58.20
32706;DHT22;19094;50.972;3.538;2022-09-09T15:29:25;23.40;58.10
32706;DHT22;19094;50.972;3.538;2022-09-09T15:31:51;23.30;58.50
32706;DHT22;19094;50.972;3.538;2022-09-09T15:34:18;23.30;58.50
32706;DHT22;19094;50.972;3.538;2022-09-09T15:36:45;23.20;58.40
32706;DHT22;19094;50.972;3.538;2022-09-09T15:39:13;23.20;58.20
32706;DHT22;19094;50.972;3.538;2022-09-09T15:41:41;23.10;58.60
32706;DHT22;19094;50.972;3.538;2022-09-09T15:44:08;23.10;58.60
32706;DHT22;19094;50.972;3.538;2022-09-09T15:46:40;23.10;59.30
32706;DHT22;19094;50.972;3.538;2022-09-09T15:49:23;23.10;58.70
32706;DHT22;19094;50.972;3.538;2022-09-09T15:51:53;23.10;58.90
32706;DHT22;19094;50.972;3.538;2022-09-09T15:54:21;23.10;59.00
32706;DHT22;19094;50.972;3.538;2022-09-09T15:56:55;23.20;59.60
32706;DHT22;19094;50.972;3.538;2022-09-09T15:59:24;23.20;59.00
32706;DHT22;19094;50.972;3.538;2022-09-09T16:01:51;23.20;59.70
32706;DHT22;19094;50.972;3.538;2022-09-09T16:04:21;23.20;59.40
32706;DHT22;19094;50.972;3.538;2022-09-09T16:06:54;23.20;59.30
32706;DHT22;19094;50.972;3.538;2022-09-09T16:09:20;23.20;59.40
32706;DHT22;19094;50.972;3.538;2022-09-09T16:11:47;23.20;58.80
32706;DHT22;19094;50.972;3.538;2022-09-09T16:14:13;23.20;59.00
32706;DHT22;19094;50.972;3.538;2022-09-09T16:16:40;23.20;59.00
32706;DHT22;19094;50.972;3.538;2022-09-09T16:19:09;23.20;59.70
32706;DHT22;19094;50.972;3.538;2022-09-09T16:21:38;23.20;59.00
32706;DHT22;19094;50.972;3.538;2022-09-09T16:24:06;23.10;58.70
32706;DHT22;19094;50.972;3.538;2022-09-09T16:26:34;23.20;59.70
32706;DHT22;19094;50.972;3.538;2022-09-09T16:29:01;23.10;59.30
32706;DHT22;19094;50.972;3.538;2022-09-09T16:31:29;23.10;59.20
32706;DHT22;19094;50.972;3.538;2022-09-09T16:33:55;23.10;59.20
32706;DHT22;19094;50.972;3.538;2022-09-09T16:36:23;23.10;59.60
32706;DHT22;19094;50.972;3.538;2022-09-09T16:38:56;23.00;59.70
32706;DHT22;19094;50.972;3.538;2022-09-09T16:41:23;22.90;60.10
32706;DHT22;19094;50.972;3.538;2022-09-09T16:44:00;22.90;59.80
32706;DHT22;19094;50.972;3.538;2022-09-09T16:46:29;22.90;61.00
32706;DHT22;19094;50.972;3.538;2022-09-09T16:48:57;22.90;60.80
32706;DHT22;19094;50.972;3.538;2022-09-09T16:51:28;22.80;60.40
32706;DHT22;19094;50.972;3.538;2022-09-09T16:53:54;22.80;60.30
32706;DHT22;19094;50.972;3.538;2022-09-09T16:56:26;22.70;61.00
32706;DHT22;19094;50.972;3.538;2022-09-09T16:58:57;22.70;60.80
32706;DHT22;19094;50.972;3.538;2022-09-09T17:01:28;22.70;60.50
32706;DHT22;19094;50.972;3.538;2022-09-09T17:03:56;22.70;60.70
32706;DHT22;19094;50.972;3.538;2022-09-09T17:06:23;22.70;60.20
32706;DHT22;19094;50.972;3.538;2022-09-09T17:08:54;22.60;60.60
32706;DHT22;19094;50.972;3.538;2022-09-09T17:11:20;22.60;61.40
32706;DHT22;19094;50.972;3.538;2022-09-09T17:13:47;22.50;60.60
32706;DHT22;19094;50.972;3.538;2022-09-09T17:16:15;22.50;61.00
32706;DHT22;19094;50.972;3.538;2022-09-09T17:18:42;22.50;61.20
32706;DHT22;19094;50.972;3.538;2022-09-09T17:21:11;22.40;61.10
32706;DHT22;19094;50.972;3.538;2022-09-09T17:23:38;22.50;60.90
32706;DHT22;19094;50.972;3.538;2022-09-09T17:26:05;22.40;60.90
32706;DHT22;19094;50.972;3.538;2022-09-09T17:28:33;22.40;61.10
32706;DHT22;19094;50.972;3.538;2022-09-09T17:30:59;22.40;61.10
32706;DHT22;19094;50.972;3.538;2022-09-09T17:33:30;22.40;61.30
32706;DHT22;19094;50.972;3.538;2022-09-09T17:36:00;22.40;61.30
32706;DHT22;19094;50.972;3.538;2022-09-09T17:38:28;22.40;61.10
32706;DHT22;19094;50.972;3.538;2022-09-09T17:41:04;22.40;60.80
32706;DHT22;19094;50.972;3.538;2022-09-09T17:43:30;22.40;60.90
32706;DHT22;19094;50.972;3.538;2022-09-09T17:46:15;22.40;60.90
32706;DHT22;19094;50.972;3.538;2022-09-09T17:48:42;22.40;61.30
32706;DHT22;19094;50.972;3.538;2022-09-09T17:51:12;22.20;61.30
32706;DHT22;19094;50.972;3.538;2022-09-09T17:53:43;22.30;61.30
32706;DHT22;19094;50.972;3.538;2022-09-09T17:56:12;22.20;61.60
32706;DHT22;19094;50.972;3.538;2022-09-09T17:58:39;22.10;62.00
32706;DHT22;19094;50.972;3.538;2022-09-09T18:01:13;22.10;62.00
32706;DHT22;19094;50.972;3.538;2022-09-09T18:03:40;22.10;62.00
32706;DHT22;19094;50.972;3.538;2022-09-09T18:06:09;22.10;62.00